sensor_id;sensor_type;location;lat;lon;timestamp;pressure;altitude;pressure_sealevel;temperature;humidity
20043;BME280;10182;52.896;6.496;2023-01-26T00:01:47;102377.53;;;-1.28;100.00
20043;BME280;10182;52.896;6.496;2023-01-26T00:06:49;102374.00;;;-1.30;100.00
20043;BME280;10182;52.896;6.496;2023-01-26T00:12:09;102366.13;;;-1.33;100.00
20043;BME280;10182;52.896;6.496;2023-01-26T00:17:12;102365.22;;;-1.34;100.00
20043;BME280;10182;52.896;6.496;2023-01-26T00:22:13;102359.38;;;-1.27;100.00
20043;BME280;10182;52.896;6.496;2023-01-26T00:27:15;102360.31;;;-1.23;100.00
20043;BME280;10182;52.896;6.496;2023-01-26T00:32:18;102354.28;;;-1.22;100.00
20043;BME280;10182;52.896;6.496;2023-01-26T00:37:20;102356.78;;;-1.27;100.00
20043;BME280;10182;52.896;6.496;2023-01-26T00:42:22;102350.78;;;-1.24;100.00
20043;BME280;10182;52.896;6.496;2023-01-26T00:47:25;102344.72;;;-1.23;100.00
20043;BME280;10182;52.896;6.496;2023-01-26T00:52:26;102340.59;;;-1.15;100.00
20043;BME280;10182;52.896;6.496;2023-01-26T00:57:28;102346.66;;;-1.16;100.00
20043;BME280;10182;52.896;6.496;2023-01-26T01:02:31;102345.72;;;-1.18;100.00
20043;BME280;10182;52.896;6.496;2023-01-26T01:07:33;102343.31;;;-1.12;100.00
20043;BME280;10182;52.896;6.496;2023-01-26T01:12:35;102337.94;;;-1.18;100.00
20043;BME280;10182;52.896;6.496;2023-01-26T01:17:38;102338.00;;;-1.15;100.00
20043;BME280;10182;52.896;6.496;2023-01-26T01:22:40;102335.25;;;-1.21;100.00
20043;BME280;10182;52.896;6.496;2023-01-26T01:27:42;102334.38;;;-1.22;100.00
20043;BME280;10182;52.896;6.496;2023-01-26T01:32:45;102328.47;;;-1.16;100.00
20043;BME280;10182;52.896;6.496;2023-01-26T01:37:50;102335.47;;;-1.13;100.00
20043;BME280;10182;52.896;6.496;2023-01-26T01:42:52;102331.28;;;-1.07;100.00
20043;BME280;10182;52.896;6.496;2023-01-26T01:47:56;102333.09;;;-1.04;100.00
20043;BME280;10182;52.896;6.496;2023-01-26T01:52:59;102322.59;;;-1.09;100.00
20043;BME280;10182;52.896;6.496;2023-01-26T01:58:02;102320.75;;;-1.13;100.00
20043;BME280;10182;52.896;6.496;2023-01-26T02:03:07;102330.09;;;-1.20;100.00
20043;BME280;10182;52.896;6.496;2023-01-26T02:08:15;102328.44;;;-1.17;100.00
20043;BME280;10182;52.896;6.496;2023-01-26T02:13:18;102326.81;;;-1.12;100.00
20043;BME280;10182;52.896;6.496;2023-01-26T02:18:22;102318.13;;;-1.13;100.00
20043;BME280;10182;52.896;6.496;2023-01-26T02:23:33;102323.38;;;-1.11;100.00
20043;BME280;10182;52.896;6.496;2023-01-26T02:28:38;102327.66;;;-1.13;100.00
20043;BME280;10182;52.896;6.496;2023-01-26T02:33:41;102333.09;;;-1.04;100.00
20043;BME280;10182;52.896;6.496;2023-01-26T02:38:48;102328.69;;;-1.07;100.00
20043;BME280;10182;52.896;6.496;2023-01-26T02:43:52;102336.72;;;-0.99;100.00
20043;BME280;10182;52.896;6.496;2023-01-26T02:48:54;102331.44;;;-1.02;100.00
20043;BME280;10182;52.896;6.496;2023-01-26T02:54:14;102330.63;;;-0.99;100.00
20043;BME280;10182;52.896;6.496;2023-01-26T02:59:30;102322.78;;;-1.01;100.00
20043;BME280;10182;52.896;6.496;2023-01-26T03:04:32;102323.78;;;-0.96;100.00
20043;BME280;10182;52.896;6.496;2023-01-26T03:09:34;102320.34;;;-0.95;100.00
20043;BME280;10182;52.896;6.496;2023-01-26T03:14:37;102312.47;;;-0.98;100.00
20043;BME280;10182;52.896;6.496;2023-01-26T03:19:38;102324.81;;;-0.89;100.00
20043;BME280;10182;52.896;6.496;2023-01-26T03:24:58;102330.16;;;-0.84;100.00
20043;BME280;10182;52.896;6.496;2023-01-26T03:30:18;102326.63;;;-0.87;100.00
20043;BME280;10182;52.896;6.496;2023-01-26T03:35:20;102320.69;;;-0.81;100.00
20043;BME280;10182;52.896;6.496;2023-01-26T03:40:22;102318.84;;;-0.85;100.00
20043;BME280;10182;52.896;6.496;2023-01-26T03:45:42;102317.19;;;-0.83;100.00
20043;BME280;10182;52.896;6.496;2023-01-26T03:51:01;102317.19;;;-0.83;100.00
20043;BME280;10182;52.896;6.496;2023-01-26T03:56:20;102311.19;;;-0.80;100.00
20043;BME280;10182;52.896;6.496;2023-01-26T04:01:25;102310.44;;;-0.75;100.00
20043;BME280;10182;52.896;6.496;2023-01-26T04:06:28;102306.00;;;-0.79;100.00
20043;BME280;10182;52.896;6.496;2023-01-26T04:11:47;102309.47;;;-0.78;100.00
20043;BME280;10182;52.896;6.496;2023-01-26T04:16:50;102306.88;;;-0.78;100.00
20043;BME280;10182;52.896;6.496;2023-01-26T04:22:10;102292.31;;;-0.72;100.00
20043;BME280;10182;52.896;6.496;2023-01-26T04:27:13;102290.56;;;-0.71;100.00
20043;BME280;10182;52.896;6.496;2023-01-26T04:32:16;102294.97;;;-0.69;100.00
20043;BME280;10182;52.896;6.496;2023-01-26T04:37:18;102294.97;;;-0.69;100.00
20043;BME280;10182;52.896;6.496;2023-01-26T04:42:20;102298.53;;;-0.65;100.00
20043;BME280;10182;52.896;6.496;2023-01-26T04:47:25;102291.72;;;-0.60;100.00
20043;BME280;10182;52.896;6.496;2023-01-26T04:52:26;102297.88;;;-0.56;100.00
20043;BME280;10182;52.896;6.496;2023-01-26T04:57:28;102287.41;;;-0.59;100.00
20043;BME280;10182;52.896;6.496;2023-01-26T05:02:31;102281.41;;;-0.55;100.00
20043;BME280;10182;52.896;6.496;2023-01-26T05:07:33;102273.59;;;-0.55;100.00
20043;BME280;10182;52.896;6.496;2023-01-26T05:12:34;102272.72;;;-0.57;100.00
20043;BME280;10182;52.896;6.496;2023-01-26T05:17:38;102285.69;;;-0.59;100.00
20043;BME280;10182;52.896;6.496;2023-01-26T05:22:40;102279.66;;;-0.56;100.00
20043;BME280;10182;52.896;6.496;2023-01-26T05:27:42;102274.50;;;-0.55;100.00
20043;BME280;10182;52.896;6.496;2023-01-26T05:32:45;102286.66;;;-0.54;100.00
20043;BME280;10182;52.896;6.496;2023-01-26T05:37:47;102291.84;;;-0.54;100.00
20043;BME280;10182;52.896;6.496;2023-01-26T05:42:49;102287.47;;;-0.56;100.00
20043;BME280;10182;52.896;6.496;2023-01-26T05:47:52;102290.22;;;-0.50;100.00
20043;BME280;10182;52.896;6.496;2023-01-26T05:52:53;102297.16;;;-0.50;100.00
20043;BME280;10182;52.896;6.496;2023-01-26T05:57:56;102293.78;;;-0.46;100.00
20043;BME280;10182;52.896;6.496;2023-01-26T06:02:59;102300.75;;;-0.44;100.00
20043;BME280;10182;52.896;6.496;2023-01-26T06:08:01;102305.19;;;-0.40;100.00
20043;BME280;10182;52.896;6.496;2023-01-26T06:13:02;102308.56;;;-0.44;100.00
20043;BME280;10182;52.896;6.496;2023-01-26T06:18:05;102307.78;;;-0.41;100.00
20043;BME280;10182;52.896;6.496;2023-01-26T06:23:07;102307.81;;;-0.40;100.00
20043;BME280;10182;52.896;6.496;2023-01-26T06:28:11;102300.00;;;-0.40;100.00
20043;BME280;10182;52.896;6.496;2023-01-26T06:33:14;102320.06;;;-0.36;100.00
20043;BME280;10182;52.896;6.496;2023-01-26T06:38:16;102308.78;;;-0.36;100.00
20043;BME280;10182;52.896;6.496;2023-01-26T06:43:17;102320.91;;;-0.37;100.00
20043;BME280;10182;52.896;6.496;2023-01-26T06:48:20;102316.59;;;-0.36;100.00
20043;BME280;10182;52.896;6.496;2023-01-26T06:53:28;102317.50;;;-0.34;100.00
20043;BME280;10182;52.896;6.496;2023-01-26T06:58:31;102328.84;;;-0.32;100.00
20043;BME280;10182;52.896;6.496;2023-01-26T07:03:34;102330.53;;;-0.34;100.00
20043;BME280;10182;52.896;6.496;2023-01-26T07:08:35;102329.66;;;-0.33;100.00
20043;BME280;10182;52.896;6.496;2023-01-26T07:13:37;102334.88;;;-0.33;100.00
20043;BME280;10182;52.896;6.496;2023-01-26T07:18:40;102346.19;;;-0.32;100.00
20043;BME280;10182;52.896;6.496;2023-01-26T07:23:42;102346.19;;;-0.32;100.00
20043;BME280;10182;52.896;6.496;2023-01-26T07:28:44;102355.72;;;-0.33;100.00
20043;BME280;10182;52.896;6.496;2023-01-26T07:33:50;102358.38;;;-0.31;100.00
20043;BME280;10182;52.896;6.496;2023-01-26T07:38:52;102362.81;;;-0.27;100.00
20043;BME280;10182;52.896;6.496;2023-01-26T07:43:53;102374.94;;;-0.28;100.00
20043;BME280;10182;52.896;6.496;2023-01-26T07:48:57;102377.75;;;-0.20;100.00
20043;BME280;10182;52.896;6.496;2023-01-26T07:53:58;102380.38;;;-0.19;100.00
20043;BME280;10182;52.896;6.496;2023-01-26T07:59:00;102380.22;;;-0.25;100.00
20043;BME280;10182;52.896;6.496;2023-01-26T08:04:03;102381.94;;;-0.25;100.00
20043;BME280;10182;52.896;6.496;2023-01-26T08:09:06;102388.00;;;-0.26;100.00
20043;BME280;10182;52.896;6.496;2023-01-26T08:14:08;102377.59;;;-0.25;100.00
20043;BME280;10182;52.896;6.496;2023-01-26T08:19:12;102386.19;;;-0.29;100.00
20043;BME280;10182;52.896;6.496;2023-01-26T08:24:13;102383.53;;;-0.32;100.00
20043;BME280;10182;52.896;6.496;2023-01-26T08:29:15;102390.31;;;-0.39;100.00
20043;BME280;10182;52.896;6.496;2023-01-26T08:34:18;102386.66;;;-0.45;100.00
20043;BME280;10182;52.896;6.496;2023-01-26T08:39:21;102382.38;;;-0.43;100.00
20043;BME280;10182;52.896;6.496;2023-01-26T08:44:23;102383.53;;;-0.32;100.00
20043;BME280;10182;52.896;6.496;2023-01-26T08:49:26;102385.66;;;-0.15;100.00
20043;BME280;10182;52.896;6.496;2023-01-26T08:54:28;102385.94;;;-0.03;100.00
20043;BME280;10182;52.896;6.496;2023-01-26T08:59:30;102398.56;;;0.16;100.00
20043;BME280;10182;52.896;6.496;2023-01-26T09:04:33;102404.16;;;0.33;100.00
20043;BME280;10182;52.896;6.496;2023-01-26T09:09:35;102397.00;;;0.64;100.00
20043;BME280;10182;52.896;6.496;2023-01-26T09:14:36;102396.81;;;0.99;100.00
20043;BME280;10182;52.896;6.496;2023-01-26T09:19:39;102409.38;;;1.19;100.00
20043;BME280;10182;52.896;6.496;2023-01-26T09:24:41;102400.97;;;1.35;100.00
20043;BME280;10182;52.896;6.496;2023-01-26T09:29:43;102401.34;;;1.57;100.00
20043;BME280;10182;52.896;6.496;2023-01-26T09:34:46;102411.31;;;1.80;100.00
20043;BME280;10182;52.896;6.496;2023-01-26T09:39:48;102418.50;;;1.95;100.00
20043;BME280;10182;52.896;6.496;2023-01-26T09:44:54;102410.91;;;2.10;100.00
20043;BME280;10182;52.896;6.496;2023-01-26T09:50:07;102426.94;;;2.33;100.00
20043;BME280;10182;52.896;6.496;2023-01-26T09:55:14;102419.38;;;2.55;100.00
20043;BME280;10182;52.896;6.496;2023-01-26T10:00:20;102419.66;;;2.77;100.00
20043;BME280;10182;52.896;6.496;2023-01-26T10:05:32;102426.03;;;2.99;100.00
20043;BME280;10182;52.896;6.496;2023-01-26T10:10:41;102429.78;;;3.22;100.00
20043;BME280;10182;52.896;6.496;2023-01-26T10:15:47;102423.91;;;3.45;100.00
20043;BME280;10182;52.896;6.496;2023-01-26T10:20:53;102427.56;;;3.61;100.00
20043;BME280;10182;52.896;6.496;2023-01-26T10:26:00;102424.25;;;3.82;100.00
20043;BME280;10182;52.896;6.496;2023-01-26T10:31:03;102416.47;;;3.96;100.00
20043;BME280;10182;52.896;6.496;2023-01-26T10:36:09;102420.97;;;4.11;100.00
20043;BME280;10182;52.896;6.496;2023-01-26T10:41:23;102418.47;;;4.33;100.00
20043;BME280;10182;52.896;6.496;2023-01-26T10:46:31;102425.56;;;4.49;100.00
20043;BME280;10182;52.896;6.496;2023-01-26T10:51:37;102419.50;;;4.60;100.00
20043;BME280;10182;52.896;6.496;2023-01-26T10:56:43;102418.66;;;4.65;100.00
20043;BME280;10182;52.896;6.496;2023-01-26T11:01:52;102417.81;;;4.75;100.00
20043;BME280;10182;52.896;6.496;2023-01-26T11:07:18;102425.78;;;4.93;100.00
20043;BME280;10182;52.896;6.496;2023-01-26T11:12:24;102418.81;;;5.05;100.00
20043;BME280;10182;52.896;6.496;2023-01-26T11:17:29;102420.59;;;5.22;100.00
20043;BME280;10182;52.896;6.496;2023-01-26T11:22:41;102409.28;;;5.52;100.00
20043;BME280;10182;52.896;6.496;2023-01-26T11:27:55;102396.13;;;5.69;100.00
20043;BME280;10182;52.896;6.496;2023-01-26T11:33:10;102392.59;;;5.78;100.00
20043;BME280;10182;52.896;6.496;2023-01-26T11:38:24;102386.47;;;5.82;100.00
20043;BME280;10182;52.896;6.496;2023-01-26T11:43:51;102383.84;;;5.88;100.00
20043;BME280;10182;52.896;6.496;2023-01-26T11:49:05;102378.59;;;6.04;100.00
20043;BME280;10182;52.896;6.496;2023-01-26T11:54:20;102364.56;;;6.06;100.00
20043;BME280;10182;52.896;6.496;2023-01-26T11:59:27;102358.41;;;6.10;100.00
20043;BME280;10182;52.896;6.496;2023-01-26T12:04:34;102368.06;;;6.21;100.00
20043;BME280;10182;52.896;6.496;2023-01-26T12:09:46;102352.25;;;6.25;100.00
20043;BME280;10182;52.896;6.496;2023-01-26T12:14:51;102343.44;;;6.33;100.00
20043;BME280;10182;52.896;6.496;2023-01-26T12:20:00;102344.25;;;6.52;100.00
20043;BME280;10182;52.896;6.496;2023-01-26T12:25:24;102336.28;;;6.67;100.00
20043;BME280;10182;52.896;6.496;2023-01-26T12:30:33;102332.81;;;6.57;100.00
20043;BME280;10182;52.896;6.496;2023-01-26T12:35:48;102328.41;;;6.63;100.00
20043;BME280;10182;52.896;6.496;2023-01-26T12:41:02;102317.88;;;6.61;100.00
20043;BME280;10182;52.896;6.496;2023-01-26T12:46:06;102314.34;;;6.64;100.00
20043;BME280;10182;52.896;6.496;2023-01-26T12:51:14;102307.38;;;6.56;100.00
20043;BME280;10182;52.896;6.496;2023-01-26T12:56:23;102303.88;;;6.51;100.00
20043;BME280;10182;52.896;6.496;2023-01-26T13:01:37;102306.53;;;6.50;100.00
20043;BME280;10182;52.896;6.496;2023-01-26T13:06:39;102301.25;;;6.53;100.00
20043;BME280;10182;52.896;6.496;2023-01-26T13:11:45;102301.22;;;6.60;100.00
20043;BME280;10182;52.896;6.496;2023-01-26T13:16:47;102296.84;;;6.55;100.00
20043;BME280;10182;52.896;6.496;2023-01-26T13:21:49;102301.25;;;6.51;100.00
20043;BME280;10182;52.896;6.496;2023-01-26T13:26:52;102295.13;;;6.51;100.00
20043;BME280;10182;52.896;6.496;2023-01-26T13:31:57;102289.88;;;6.43;100.00
20043;BME280;10182;52.896;6.496;2023-01-26T13:37:04;102294.28;;;6.42;100.00
20043;BME280;10182;52.896;6.496;2023-01-26T13:42:22;102290.81;;;6.31;100.00
20043;BME280;10182;52.896;6.496;2023-01-26T13:47:28;102292.56;;;6.38;100.00
20043;BME280;10182;52.896;6.496;2023-01-26T13:52:40;102296.09;;;6.30;100.00
20043;BME280;10182;52.896;6.496;2023-01-26T13:57:43;102310.06;;;6.39;100.00
20043;BME280;10182;52.896;6.496;2023-01-26T14:02:48;102303.13;;;6.23;100.00
20043;BME280;10182;52.896;6.496;2023-01-26T14:07:50;102303.13;;;6.20;100.00
20043;BME280;10182;52.896;6.496;2023-01-26T14:12:54;102301.38;;;6.19;100.00
20043;BME280;10182;52.896;6.496;2023-01-26T14:17:58;102298.72;;;6.22;100.00
20043;BME280;10182;52.896;6.496;2023-01-26T14:23:12;102296.13;;;6.17;100.00
20043;BME280;10182;52.896;6.496;2023-01-26T14:28:20;102305.81;;;6.07;100.00
20043;BME280;10182;52.896;6.496;2023-01-26T14:33:23;102307.56;;;6.05;100.00
20043;BME280;10182;52.896;6.496;2023-01-26T14:38:27;102302.34;;;5.98;100.00
20043;BME280;10182;52.896;6.496;2023-01-26T14:43:30;102298.81;;;6.00;100.00
20043;BME280;10182;52.896;6.496;2023-01-26T14:48:35;102290.94;;;6.02;100.00
20043;BME280;10182;52.896;6.496;2023-01-26T14:53:38;102297.06;;;6.01;100.00
20043;BME280;10182;52.896;6.496;2023-01-26T14:58:41;102289.16;;;5.93;100.00
20043;BME280;10182;52.896;6.496;2023-01-26T15:03:43;102299.66;;;5.91;100.00
20043;BME280;10182;52.896;6.496;2023-01-26T15:08:59;102298.81;;;5.83;100.00
20043;BME280;10182;52.896;6.496;2023-01-26T15:14:34;102289.19;;;5.84;100.00
20043;BME280;10182;52.896;6.496;2023-01-26T15:19:40;102286.56;;;5.76;100.00
20043;BME280;10182;52.896;6.496;2023-01-26T15:24:42;102288.31;;;5.74;100.00
20043;BME280;10182;52.896;6.496;2023-01-26T15:29:46;102286.56;;;5.67;100.00
20043;BME280;10182;52.896;6.496;2023-01-26T15:34:47;102293.59;;;5.57;100.00
20043;BME280;10182;52.896;6.496;2023-01-26T15:39:49;102293.59;;;5.68;100.00
20043;BME280;10182;52.896;6.496;2023-01-26T15:44:52;102307.59;;;5.67;100.00
20043;BME280;10182;52.896;6.496;2023-01-26T15:49:54;102309.38;;;5.57;100.00
20043;BME280;10182;52.896;6.496;2023-01-26T15:54:56;102301.50;;;5.57;100.00
20043;BME280;10182;52.896;6.496;2023-01-26T15:59:59;102310.25;;;5.53;100.00
20043;BME280;10182;52.896;6.496;2023-01-26T16:05:04;102318.16;;;5.51;100.00
20043;BME280;10182;52.896;6.496;2023-01-26T16:10:07;102322.50;;;5.51;100.00
20043;BME280;10182;52.896;6.496;2023-01-26T16:15:21;102333.03;;;5.37;100.00
20043;BME280;10182;52.896;6.496;2023-01-26T16:20:27;102336.53;;;5.31;100.00
20043;BME280;10182;52.896;6.496;2023-01-26T16:25:31;102339.16;;;5.13;100.00
20043;BME280;10182;52.896;6.496;2023-01-26T16:30:34;102340.03;;;5.15;100.00
20043;BME280;10182;52.896;6.496;2023-01-26T16:35:35;102346.13;;;5.00;100.00
20043;BME280;10182;52.896;6.496;2023-01-26T16:40:38;102355.69;;;4.81;100.00
20043;BME280;10182;52.896;6.496;2023-01-26T16:45:42;102351.28;;;4.60;100.00
20043;BME280;10182;52.896;6.496;2023-01-26T16:50:43;102352.09;;;4.52;100.00
20043;BME280;10182;52.896;6.496;2023-01-26T16:55:46;102349.47;;;4.49;100.00
20043;BME280;10182;52.896;6.496;2023-01-26T17:00:49;102349.50;;;4.55;100.00
20043;BME280;10182;52.896;6.496;2023-01-26T17:05:51;102356.47;;;4.50;100.00
20043;BME280;10182;52.896;6.496;2023-01-26T17:10:52;102359.06;;;4.44;100.00
20043;BME280;10182;52.896;6.496;2023-01-26T17:15:57;102359.84;;;4.26;100.00
20043;BME280;10182;52.896;6.496;2023-01-26T17:21:01;102365.88;;;4.10;100.00
20043;BME280;10182;52.896;6.496;2023-01-26T17:26:03;102364.03;;;3.95;100.00
20043;BME280;10182;52.896;6.496;2023-01-26T17:31:10;102368.34;;;3.88;100.00
20043;BME280;10182;52.896;6.496;2023-01-26T17:36:15;102356.97;;;3.84;100.00
20043;BME280;10182;52.896;6.496;2023-01-26T17:41:17;102363.09;;;3.83;100.00
20043;BME280;10182;52.896;6.496;2023-01-26T17:46:20;102366.53;;;3.78;100.00
20043;BME280;10182;52.896;6.496;2023-01-26T17:51:22;102363.91;;;3.76;100.00
20043;BME280;10182;52.896;6.496;2023-01-26T17:56:24;102348.97;;;3.67;100.00
20043;BME280;10182;52.896;6.496;2023-01-26T18:01:27;102364.72;;;3.69;100.00
20043;BME280;10182;52.896;6.496;2023-01-26T18:06:29;102362.97;;;3.66;100.00
20043;BME280;10182;52.896;6.496;2023-01-26T18:11:31;102373.38;;;3.57;100.00
20043;BME280;10182;52.896;6.496;2023-01-26T18:16:34;102380.25;;;3.46;100.00
20043;BME280;10182;52.896;6.496;2023-01-26T18:21:35;102374.94;;;3.35;100.00
20043;BME280;10182;52.896;6.496;2023-01-26T18:26:40;102373.00;;;3.18;100.00
20043;BME280;10182;52.896;6.496;2023-01-26T18:31:43;102369.41;;;3.07;100.00
20043;BME280;10182;52.896;6.496;2023-01-26T18:36:44;102382.34;;;2.95;100.00
20043;BME280;10182;52.896;6.496;2023-01-26T18:41:46;102382.22;;;2.84;100.00
20043;BME280;10182;52.896;6.496;2023-01-26T18:46:49;102386.47;;;2.73;100.00
20043;BME280;10182;52.896;6.496;2023-01-26T18:51:51;102376.72;;;2.62;100.00
20043;BME280;10182;52.896;6.496;2023-01-26T18:56:53;102376.66;;;2.53;100.00
20043;BME280;10182;52.896;6.496;2023-01-26T19:01:58;102374.88;;;2.50;100.00
20043;BME280;10182;52.896;6.496;2023-01-26T19:07:00;102380.91;;;2.45;100.00
20043;BME280;10182;52.896;6.496;2023-01-26T19:12:03;102379.00;;;2.34;100.00
20043;BME280;10182;52.896;6.496;2023-01-26T19:17:06;102380.66;;;2.29;100.00
20043;BME280;10182;52.896;6.496;2023-01-26T19:22:07;102385.81;;;2.23;100.00
20043;BME280;10182;52.896;6.496;2023-01-26T19:27:10;102383.97;;;2.16;100.00
20043;BME280;10182;52.896;6.496;2023-01-26T19:32:13;102394.25;;;2.03;100.00
20043;BME280;10182;52.896;6.496;2023-01-26T19:37:15;102396.84;;;2.03;100.00
20043;BME280;10182;52.896;6.496;2023-01-26T19:42:16;102409.81;;;1.96;100.00
20043;BME280;10182;52.896;6.496;2023-01-26T19:47:19;102410.53;;;1.87;100.00
20043;BME280;10182;52.896;6.496;2023-01-26T19:52:21;102408.66;;;1.78;100.00
20043;BME280;10182;52.896;6.496;2023-01-26T19:57:23;102408.59;;;1.74;100.00
20043;BME280;10182;52.896;6.496;2023-01-26T20:02:26;102410.38;;;1.76;100.00
20043;BME280;10182;52.896;6.496;2023-01-26T20:07:27;102412.06;;;1.73;100.00
20043;BME280;10182;52.896;6.496;2023-01-26T20:12:29;102412.78;;;1.64;100.00
20043;BME280;10182;52.896;6.496;2023-01-26T20:17:33;102413.56;;;1.60;100.00
20043;BME280;10182;52.896;6.496;2023-01-26T20:22:35;102420.47;;;1.55;100.00
20043;BME280;10182;52.896;6.496;2023-01-26T20:27:37;102416.84;;;1.46;100.00
20043;BME280;10182;52.896;6.496;2023-01-26T20:32:40;102413.28;;;1.43;100.00
20043;BME280;10182;52.896;6.496;2023-01-26T20:37:42;102429.75;;;1.39;100.00
20043;BME280;10182;52.896;6.496;2023-01-26T20:42:44;102428.72;;;1.29;100.00
20043;BME280;10182;52.896;6.496;2023-01-26T20:47:47;102433.81;;;1.23;100.00
20043;BME280;10182;52.896;6.496;2023-01-26T20:52:49;102437.34;;;1.25;100.00
20043;BME280;10182;52.896;6.496;2023-01-26T20:57:50;102431.75;;;1.52;100.00
20043;BME280;10182;52.896;6.496;2023-01-26T21:02:53;102437.38;;;1.77;100.00
20043;BME280;10182;52.896;6.496;2023-01-26T21:07:55;102439.38;;;1.90;100.00
20043;BME280;10182;52.896;6.496;2023-01-26T21:12:57;102440.72;;;2.22;100.00
20043;BME280;10182;52.896;6.496;2023-01-26T21:18:00;102442.88;;;2.50;100.00
20043;BME280;10182;52.896;6.496;2023-01-26T21:23:02;102440.38;;;2.60;100.00
20043;BME280;10182;52.896;6.496;2023-01-26T21:28:04;102438.81;;;2.73;100.00
20043;BME280;10182;52.896;6.496;2023-01-26T21:33:07;102452.88;;;2.82;100.00
20043;BME280;10182;52.896;6.496;2023-01-26T21:38:08;102445.16;;;2.90;100.00
20043;BME280;10182;52.896;6.496;2023-01-26T21:43:10;102462.72;;;3.00;100.00
20043;BME280;10182;52.896;6.496;2023-01-26T21:48:13;102468.03;;;3.08;100.00
20043;BME280;10182;52.896;6.496;2023-01-26T21:53:34;102458.44;;;3.09;100.00
20043;BME280;10182;52.896;6.496;2023-01-26T21:58:36;102459.38;;;3.14;100.00
20043;BME280;10182;52.896;6.496;2023-01-26T22:04:04;102470.78;;;3.17;100.00
20043;BME280;10182;52.896;6.496;2023-01-26T22:09:08;102460.28;;;3.16;100.00
20043;BME280;10182;52.896;6.496;2023-01-26T22:14:12;102465.47;;;3.13;100.00
20043;BME280;10182;52.896;6.496;2023-01-26T22:19:16;102467.25;;;3.17;100.00
20043;BME280;10182;52.896;6.496;2023-01-26T22:24:18;102471.50;;;3.07;100.00
20043;BME280;10182;52.896;6.496;2023-01-26T22:29:20;102471.50;;;3.04;100.00
20043;BME280;10182;52.896;6.496;2023-01-26T22:34:23;102478.53;;;3.10;100.00
20043;BME280;10182;52.896;6.496;2023-01-26T22:39:24;102480.31;;;3.11;100.00
20043;BME280;10182;52.896;6.496;2023-01-26T22:44:26;102481.16;;;3.11;100.00
20043;BME280;10182;52.896;6.496;2023-01-26T22:49:29;102481.19;;;3.14;100.00
20043;BME280;10182;52.896;6.496;2023-01-26T22:54:31;102496.03;;;3.14;100.00
20043;BME280;10182;52.896;6.496;2023-01-26T22:59:32;102494.28;;;3.14;100.00
20043;BME280;10182;52.896;6.496;2023-01-26T23:04:35;102497.78;;;3.13;100.00
20043;BME280;10182;52.896;6.496;2023-01-26T23:09:37;102501.22;;;3.08;100.00
20043;BME280;10182;52.896;6.496;2023-01-26T23:14:39;102501.22;;;3.09;100.00
20043;BME280;10182;52.896;6.496;2023-01-26T23:19:42;102507.34;;;3.10;100.00
20043;BME280;10182;52.896;6.496;2023-01-26T23:24:44;102518.66;;;3.07;100.00
20043;BME280;10182;52.896;6.496;2023-01-26T23:30:06;102509.00;;;3.04;100.00
20043;BME280;10182;52.896;6.496;2023-01-26T23:35:09;102513.41;;;3.05;100.00
20043;BME280;10182;52.896;6.496;2023-01-26T23:40:12;102514.16;;;2.97;100.00
20043;BME280;10182;52.896;6.496;2023-01-26T23:45:14;102512.38;;;2.94;100.00
20043;BME280;10182;52.896;6.496;2023-01-26T23:50:17;102514.06;;;2.89;100.00
20043;BME280;10182;52.896;6.496;2023-01-26T23:55:19;102520.19;;;2.91;100.00
